Current | Forecast
Updated: 1:00 AM EEST on June 26, 2017
Observed at Odessa, Ukraine
Temperature 21°C
Humidity 94%
Dew Point 20°C
Wind East at 7 km/h
Pressure 1014 hPa (Steady)
Conditions Clear
Visibility -
UV N/A
Clouds
Yesterday's Maximum 29°C
Yesterday's Minimum 16°C approx.
Yesterday's Cooling Degree Days 7 approx.
Sunrise5:01 AM EEST
Sunset8:49 PM EEST
Moon Rise7:41 AM EEST
Moon Set10:41 PM EEST
Moon PhaseMoon Phase
Waxing Crescent
Raw METARMETAR UKOO 252200Z 08002MPS CAVOK 21/20 Q1014 R16/090060 NOSIG


Monday
. High: 57° F.
Tuesday
. High: 60° F.
Wednesday
. High: 59° F.
Thursday
. High: 62° F.
Friday
. High: 62° F.
Saturday
. High: 59° F.
Sunday
. High: 60° F.
Monday
. High: 66° F.

Units: English | Metric

Find the Weather for any City, State or Zipcode, or Country:

U.S. State List | Severe Weather | Tropical Storms | Ski Conditions
United States | Canada | Central America | South America | Asia | Europe | Australia | Africa | Islands

Weather Underground

© Copyright 2017
The Weather Company, LLC